Time;durP1;ratioP1;P1;durP2;ratioP2;P2;SDS_P1;SDS_P2;PMS_P1;PMS_P2;Temp;Humidity;BMP_temperature;BMP_pressure;BME280_temperature;BME280_humidity;BME280_pressure;Samples;Min_cycle;Max_cycle;Signal;HPM_P1;HPM_P2
2022/04/06 00:02:17;;;;;;;8.17;1.73;;;12.00;99.90;;;;;;5065853;28;20228;-95
2022/04/06 00:04:52;;;;;;;4.40;1.47;;;12.20;99.90;;;;;;5064042;28;20271;-94
2022/04/06 00:07:32;;;;;;;7.83;1.60;;;12.30;99.90;;;;;;5063886;28;20238;-93
2022/04/06 00:10:07;;;;;;;5.57;1.53;;;12.20;99.90;;;;;;5063706;28;20238;-91
2022/04/06 00:12:41;;;;;;;7.13;1.83;;;11.70;99.90;;;;;;5062127;28;20208;-92
2022/04/06 00:15:17;;;;;;;6.53;1.97;;;11.50;99.90;;;;;;5061486;28;20215;-92
2022/04/06 00:17:50;;;;;;;7.10;1.80;;;11.50;99.90;;;;;;5072274;28;20207;-91
2022/04/06 00:23:15;;;;;;;3.37;1.60;;;10.80;99.90;;;;;;5077135;28;20230;-92
2022/04/06 00:26:00;;;;;;;3.77;1.20;;;10.90;99.90;;;;;;5076304;28;20196;-91
2022/04/06 00:28:35;;;;;;;6.77;1.77;;;10.90;99.90;;;;;;5066473;28;20231;-90
2022/04/06 00:31:07;;;;;;;5.93;2.13;;;10.70;99.90;;;;;;5065915;28;20252;-91
2022/04/06 00:33:38;;;;;;;6.83;1.50;;;10.60;99.90;;;;;;5043759;28;20228;-92
2022/04/06 00:36:09;;;;;;;4.63;1.53;;;10.50;99.90;;;;;;5042707;28;20213;-92
2022/04/06 00:38:41;;;;;;;5.17;1.03;;;10.40;99.90;;;;;;5044204;28;20236;-91
2022/04/06 00:41:12;;;;;;;4.50;1.33;;;10.20;99.90;;;;;;5060536;28;20319;-91
2022/04/06 00:43:45;;;;;;;3.37;1.50;;;10.00;99.90;;;;;;5067644;28;20242;-92
2022/04/06 00:46:16;;;;;;;5.83;1.60;;;9.90;99.90;;;;;;5061267;28;20212;-91
2022/04/06 00:48:48;;;;;;;5.30;1.50;;;9.60;99.90;;;;;;5058530;28;20303;-91
2022/04/06 00:51:20;;;;;;;4.33;1.57;;;9.50;99.90;;;;;;5059839;28;20630;-92
2022/04/06 00:53:51;;;;;;;3.87;1.17;;;9.40;99.90;;;;;;5060420;28;20235;-91
2022/04/06 00:56:23;;;;;;;5.00;1.37;;;9.30;99.90;;;;;;5059848;28;20236;-92
2022/04/06 00:58:57;;;;;;;4.00;1.20;;;9.40;99.90;;;;;;5058783;28;20749;-91
2022/04/06 01:01:28;;;;;;;6.23;1.70;;;9.30;99.90;;;;;;5058925;28;20212;-90
2022/04/06 01:06:43;;;;;;;11.83;2.30;;;9.20;99.90;;;;;;5064502;28;20587;-92
2022/04/06 01:09:16;;;;;;;5.50;1.77;;;9.00;99.90;;;;;;5058276;28;20220;-92
2022/04/06 01:11:49;;;;;;;6.10;1.47;;;8.90;99.90;;;;;;5058640;28;20212;-92
2022/04/06 01:14:22;;;;;;;6.30;1.77;;;9.00;99.90;;;;;;5059557;28;20247;-91
2022/04/06 01:17:02;;;;;;;5.80;1.70;;;9.20;99.90;;;;;;5066731;28;20250;-92
2022/04/06 01:19:36;;;;;;;6.77;2.00;;;9.40;99.90;;;;;;5060767;28;20206;-92
2022/04/06 01:22:14;;;;;;;8.80;2.07;;;9.50;99.90;;;;;;5064629;28;20307;-93
2022/04/06 01:24:48;;;;;;;5.37;1.37;;;9.70;99.90;;;;;;5069216;28;20208;-93
2022/04/06 01:27:19;;;;;;;7.33;1.70;;;9.70;99.90;;;;;;5063967;28;20219;-92
2022/04/06 01:29:52;;;;;;;4.93;1.60;;;10.00;99.90;;;;;;5059106;28;20208;-92
2022/04/06 01:32:25;;;;;;;4.07;1.37;;;10.10;99.90;;;;;;5064208;28;20236;-92
2022/04/06 01:34:57;;;;;;;7.43;1.60;;;10.20;99.90;;;;;;5064503;28;20267;-92
2022/04/06 01:37:37;;;;;;;2.57;1.57;;;10.20;99.90;;;;;;5048558;28;20211;-92
2022/04/06 01:40:17;;;;;;;4.77;1.40;;;9.90;99.90;;;;;;5072079;28;20208;-89
2022/04/06 01:42:49;;;;;;;6.60;1.80;;;9.40;99.90;;;;;;4735260;23;10001706;-93
2022/04/06 01:45:20;;;;;;;3.97;2.00;;;9.10;99.90;;;;;;5071038;28;20215;-91
2022/04/06 01:47:52;;;;;;;4.70;1.53;;;9.00;99.90;;;;;;5057926;28;20242;-91
2022/04/06 01:53:25;;;;;;;6.23;2.23;;;8.80;99.90;;;;;;5059275;28;20661;-91
2022/04/06 01:55:57;;;;;;;4.37;1.33;;;8.70;99.90;;;;;;5068531;28;20191;-91
2022/04/06 02:01:26;;;;;;;7.03;1.63;;;8.60;99.90;;;;;;5063535;28;20200;-91
2022/04/06 02:04:00;;;;;;;4.17;1.30;;;8.50;99.90;;;;;;5068748;28;20236;-91
2022/04/06 02:09:42;;;;;;;5.27;1.40;;;8.50;99.90;;;;;;5066605;28;20729;-90
2022/04/06 02:12:14;;;;;;;5.07;1.63;;;8.50;99.90;;;;;;5067153;28;20226;-91
2022/04/06 02:14:48;;;;;;;4.57;1.10;;;8.50;99.90;;;;;;5067335;28;20219;-91
2022/04/06 02:19:59;;;;;;;3.37;1.30;;;8.30;99.90;;;;;;5028751;28;20475;-91
2022/04/06 02:22:45;;;;;;;5.53;1.93;;;8.20;99.90;;;;;;5028844;28;20290;-91
2022/04/06 02:25:20;;;;;;;5.10;1.50;;;8.20;99.90;;;;;;5028317;28;20216;-91
2022/04/06 02:28:06;;;;;;;3.87;1.50;;;8.00;99.90;;;;;;5031822;28;20225;-90
2022/04/06 02:30:59;;;;;;;4.73;1.63;;;7.90;99.90;;;;;;5028970;28;20213;-91
2022/04/06 02:33:37;;;;;;;3.97;1.67;;;7.80;99.90;;;;;;5030350;28;20225;-91
2022/04/06 02:36:10;;;;;;;3.53;1.20;;;7.70;99.90;;;;;;5031573;28;20216;-91
2022/04/06 02:38:41;;;;;;;3.80;1.50;;;7.60;99.90;;;;;;5030651;28;20216;-91
2022/04/06 02:44:03;;;;;;;3.13;1.17;;;7.40;99.90;;;;;;5051099;28;20259;-91
2022/04/06 02:46:46;;;;;;;4.23;1.50;;;7.20;99.90;;;;;;5050394;28;20621;-91
2022/04/06 02:49:35;;;;;;;5.00;1.50;;;7.10;99.90;;;;;;5047715;28;20204;-91
2022/04/06 02:52:09;;;;;;;4.67;1.77;;;7.00;99.90;;;;;;5048970;28;20211;-91
2022/04/06 02:54:41;;;;;;;2.83;1.27;;;6.90;99.90;;;;;;5034057;28;20237;-91
2022/04/06 02:57:32;;;;;;;3.07;1.30;;;6.80;99.90;;;;;;5050424;28;20212;-91
2022/04/06 03:00:11;;;;;;;6.87;1.83;;;6.70;99.90;;;;;;5049771;28;20228;-92
2022/04/06 03:02:44;;;;;;;6.23;1.67;;;6.60;99.90;;;;;;5029918;28;20229;-92
2022/04/06 03:05:17;;;;;;;5.33;1.80;;;6.60;99.90;;;;;;5029317;28;20244;-89
2022/04/06 03:07:49;;;;;;;3.67;1.70;;;6.60;99.90;;;;;;5027375;28;20198;-90
2022/04/06 03:10:38;;;;;;;6.60;2.10;;;6.40;99.90;;;;;;5029319;28;20206;-90
2022/04/06 03:13:15;;;;;;;6.20;2.17;;;6.30;99.90;;;;;;5029385;28;20235;-91
2022/04/06 03:15:50;;;;;;;5.97;2.07;;;6.30;99.90;;;;;;5030883;28;20281;-91
2022/04/06 03:18:25;;;;;;;3.93;1.87;;;6.20;99.90;;;;;;5032497;28;20207;-91
2022/04/06 03:21:09;;;;;;;5.33;1.83;;;6.10;99.90;;;;;;5031018;28;20197;-92
2022/04/06 03:23:40;;;;;;;4.93;2.10;;;6.10;99.90;;;;;;5027162;28;20249;-90
2022/04/06 03:26:13;;;;;;;3.80;1.70;;;6.00;99.90;;;;;;5028290;28;20586;-91
2022/04/06 03:28:50;;;;;;;4.60;1.70;;;6.00;99.90;;;;;;5010643;28;20233;-90
2022/04/06 03:31:35;;;;;;;5.63;1.73;;;5.90;99.90;;;;;;5021845;28;20658;-90
2022/04/06 03:34:21;;;;;;;8.10;1.50;;;5.90;99.90;;;;;;5032092;28;20210;-90
2022/04/06 03:36:56;;;;;;;6.13;1.80;;;5.80;99.90;;;;;;5030668;28;20220;-91
2022/04/06 03:39:30;;;;;;;3.50;1.50;;;5.80;99.90;;;;;;5030318;28;20205;-92
2022/04/06 03:42:05;;;;;;;3.60;1.43;;;5.70;99.90;;;;;;5030546;28;20201;-91
2022/04/06 03:47:33;;;;;;;4.20;1.80;;;5.50;99.90;;;;;;5030098;28;20341;-91
2022/04/06 03:50:12;;;;;;;4.33;1.70;;;5.50;99.90;;;;;;5031347;28;20214;-91
2022/04/06 03:55:32;;;;;;;7.53;1.70;;;5.50;99.90;;;;;;5032472;28;20261;-91
2022/04/06 03:58:06;;;;;;;4.07;1.70;;;5.50;99.90;;;;;;5038457;28;20201;-92
2022/04/06 04:01:06;;;;;;;3.93;1.40;;;5.40;99.90;;;;;;5038786;28;20217;-91
2022/04/06 04:03:56;;;;;;;4.43;1.73;;;5.40;99.90;;;;;;5034906;28;20260;-90
2022/04/06 04:06:38;;;;;;;4.27;1.70;;;5.40;99.90;;;;;;5035956;28;20220;-91
2022/04/06 04:12:08;;;;;;;3.70;1.57;;;5.30;99.90;;;;;;5032705;28;20273;-91
2022/04/06 04:14:47;;;;;;;4.43;2.07;;;5.20;99.90;;;;;;5033228;28;20230;-91
2022/04/06 04:17:29;;;;;;;3.50;1.60;;;5.20;99.90;;;;;;5032678;28;20248;-92
2022/04/06 04:20:02;;;;;;;5.67;1.63;;;5.20;99.90;;;;;;5028945;28;20237;-91
2022/04/06 04:22:33;;;;;;;5.63;2.53;;;5.20;99.90;;;;;;5030081;28;20209;-92
2022/04/06 04:25:06;;;;;;;4.47;1.90;;;5.10;99.90;;;;;;5030387;28;20263;-90
2022/04/06 04:27:39;;;;;;;5.70;1.90;;;5.10;99.90;;;;;;5037975;28;20182;-92
2022/04/06 04:30:13;;;;;;;7.27;2.17;;;5.00;99.90;;;;;;5037993;28;20205;-92
2022/04/06 04:32:47;;;;;;;2.93;1.70;;;5.00;99.90;;;;;;5038637;28;20185;-88
2022/04/06 04:35:19;;;;;;;5.67;1.67;;;4.90;99.90;;;;;;5035932;28;20235;-90
2022/04/06 04:37:51;;;;;;;5.13;1.67;;;4.90;99.90;;;;;;5031200;28;20221;-88
2022/04/06 04:40:23;;;;;;;4.07;1.73;;;4.90;99.90;;;;;;5021247;28;20232;-90
2022/04/06 04:42:55;;;;;;;9.53;1.33;;;4.90;99.90;;;;;;5020035;28;20217;-91
2022/04/06 04:45:33;;;;;;;7.03;1.83;;;4.80;99.90;;;;;;5022436;28;20320;-90
2022/04/06 04:48:08;;;;;;;6.00;1.63;;;4.80;99.90;;;;;;5019516;28;20626;-91
2022/04/06 04:50:39;;;;;;;5.00;1.57;;;4.80;99.90;;;;;;5019840;28;20224;-90
2022/04/06 04:53:10;;;;;;;8.17;1.90;;;4.80;99.90;;;;;;5019560;28;20229;-90
2022/04/06 04:55:43;;;;;;;5.33;2.07;;;4.80;99.90;;;;;;5020060;28;20213;-90
2022/04/06 04:58:22;;;;;;;4.80;2.00;;;4.80;99.90;;;;;;5022578;28;20271;-89
2022/04/06 05:01:04;;;;;;;4.63;1.70;;;4.80;99.90;;;;;;5028301;28;20218;-90
2022/04/06 05:03:51;;;;;;;5.57;1.80;;;4.70;99.90;;;;;;5020464;28;20209;-90
2022/04/06 05:06:30;;;;;;;8.30;1.53;;;4.70;99.90;;;;;;5019157;28;20271;-91
2022/04/06 05:09:01;;;;;;;5.00;1.80;;;4.70;99.90;;;;;;5019002;28;20205;-92
2022/04/06 05:11:33;;;;;;;5.13;1.70;;;4.70;99.90;;;;;;5021992;28;20206;-90
2022/04/06 05:14:04;;;;;;;5.57;1.67;;;4.70;99.90;;;;;;5021661;28;20213;-90
2022/04/06 05:16:40;;;;;;;4.27;1.40;;;4.70;99.90;;;;;;5032267;28;20193;-90
2022/04/06 05:19:16;;;;;;;3.90;1.47;;;4.70;99.90;;;;;;5016968;28;20221;-90
2022/04/06 05:21:48;;;;;;;3.87;1.60;;;4.70;99.90;;;;;;5021617;28;20221;-89
2022/04/06 05:24:20;;;;;;;3.83;1.40;;;4.70;99.90;;;;;;5018947;28;20249;-90
2022/04/06 05:26:50;;;;;;;5.87;1.30;;;4.70;99.90;;;;;;5021712;28;20557;-90
2022/04/06 05:29:22;;;;;;;7.33;2.10;;;4.70;99.90;;;;;;5019377;28;20273;-91
2022/04/06 05:31:53;;;;;;;9.53;2.00;;;4.70;99.90;;;;;;5018949;28;20226;-90
2022/04/06 05:34:28;;;;;;;7.00;1.87;;;4.70;99.90;;;;;;5024639;28;20219;-90
2022/04/06 05:37:00;;;;;;;11.27;2.00;;;4.80;99.90;;;;;;5021592;28;20721;-91
2022/04/06 05:39:34;;;;;;;6.67;1.40;;;4.90;99.90;;;;;;5021688;28;20579;-89
2022/04/06 05:42:08;;;;;;;9.60;2.00;;;4.90;99.90;;;;;;5020950;28;20209;-90
2022/04/06 05:44:40;;;;;;;5.97;1.93;;;4.90;99.90;;;;;;5023038;28;20245;-89
2022/04/06 05:47:12;;;;;;;9.53;1.73;;;5.00;99.90;;;;;;5035505;28;20201;-92
2022/04/06 05:49:46;;;;;;;11.20;2.73;;;5.00;99.90;;;;;;5036533;28;20213;-90
2022/04/06 05:52:17;;;;;;;7.07;2.00;;;5.00;99.90;;;;;;5024146;28;20209;-92
2022/04/06 05:54:48;;;;;;;8.40;2.00;;;5.00;99.90;;;;;;5020947;28;20244;-90
2022/04/06 05:57:24;;;;;;;6.23;1.93;;;5.00;99.90;;;;;;5020169;28;20232;-92
2022/04/06 05:59:56;;;;;;;8.13;2.03;;;5.00;99.90;;;;;;5028109;28;20236;-89
2022/04/06 06:02:29;;;;;;;7.07;2.23;;;5.00;99.90;;;;;;5022485;28;20225;-92
2022/04/06 06:05:02;;;;;;;10.70;2.10;;;5.00;99.90;;;;;;5019072;28;20239;-90
2022/04/06 06:07:48;;;;;;;7.37;2.40;;;5.00;99.90;;;;;;5017917;28;20237;-90
2022/04/06 06:10:19;;;;;;;7.60;1.93;;;5.00;99.90;;;;;;5019011;28;20209;-90
2022/04/06 06:12:53;;;;;;;8.27;2.37;;;5.00;99.90;;;;;;5033211;28;20198;-90
2022/04/06 06:15:25;;;;;;;10.30;2.30;;;4.90;99.90;;;;;;5029849;28;20223;-91
2022/04/06 06:17:57;;;;;;;10.43;2.93;;;4.90;99.90;;;;;;5029995;28;20320;-91
2022/04/06 06:20:30;;;;;;;9.83;2.87;;;4.90;99.90;;;;;;5025750;28;20205;-91
2022/04/06 06:23:02;;;;;;;11.83;2.20;;;4.80;99.90;;;;;;5022351;28;20659;-91
2022/04/06 06:25:33;;;;;;;7.73;1.93;;;4.70;99.90;;;;;;5020496;28;20779;-91
2022/04/06 06:28:04;;;;;;;11.10;2.07;;;4.80;99.90;;;;;;5018428;28;20206;-91
2022/04/06 06:30:36;;;;;;;10.83;2.43;;;4.80;99.90;;;;;;5017983;28;20231;-91
2022/04/06 06:33:08;;;;;;;11.37;2.83;;;4.80;99.90;;;;;;5020363;28;20206;-90
2022/04/06 06:35:42;;;;;;;9.13;2.10;;;4.80;99.90;;;;;;5022266;28;20288;-92
2022/04/06 06:38:13;;;;;;;10.70;2.30;;;4.70;99.90;;;;;;5018025;28;20650;-92
2022/04/06 06:40:44;;;;;;;13.73;2.30;;;4.70;99.90;;;;;;5018617;28;20301;-91
2022/04/06 06:43:15;;;;;;;9.23;2.53;;;4.70;99.90;;;;;;5017875;28;20206;-91
2022/04/06 06:45:46;;;;;;;10.03;2.33;;;4.60;99.90;;;;;;5018129;28;20768;-89
2022/04/06 06:48:18;;;;;;;11.10;2.50;;;4.60;99.90;;;;;;5017093;28;20677;-92
2022/04/06 06:50:51;;;;;;;11.47;2.40;;;4.50;99.90;;;;;;5017462;28;20333;-91
2022/04/06 06:53:23;;;;;;;12.27;2.07;;;4.50;99.90;;;;;;5018526;28;20217;-89
2022/04/06 06:55:55;;;;;;;6.17;2.50;;;4.50;99.90;;;;;;5020706;28;20309;-90
2022/04/06 06:58:26;;;;;;;9.30;2.30;;;4.40;99.90;;;;;;5016814;28;20205;-91
2022/04/06 07:00:58;;;;;;;10.03;2.20;;;4.40;99.90;;;;;;5028893;28;20228;-91
2022/04/06 07:03:30;;;;;;;11.60;3.00;;;4.30;99.90;;;;;;5029663;28;20202;-91
2022/04/06 07:06:12;;;;;;;9.33;2.13;;;4.20;99.90;;;;;;5024765;28;20260;-91
2022/04/06 07:09:00;;;;;;;5.47;1.50;;;4.20;99.90;;;;;;5028395;28;20210;-91
2022/04/06 07:11:45;;;;;;;5.07;1.90;;;4.20;99.90;;;;;;5026138;28;20249;-90
2022/04/06 07:16:44;;;;;;;10.97;2.10;;;4.20;99.90;;;;;;5056251;28;20277;-90
2022/04/06 07:22:09;;;;;;;6.53;1.70;;;4.10;99.90;;;;;;5061576;28;20229;-92
2022/04/06 07:24:40;;;;;;;5.60;1.57;;;4.10;99.90;;;;;;5056985;28;20214;-90
2022/04/06 07:27:18;;;;;;;4.63;1.43;;;4.00;99.90;;;;;;5055438;28;20247;-90
2022/04/06 07:29:49;;;;;;;8.70;1.93;;;4.00;99.90;;;;;;5056737;28;20274;-90
2022/04/06 07:32:22;;;;;;;7.77;1.77;;;3.90;99.90;;;;;;5056638;28;20605;-93
2022/04/06 07:34:53;;;;;;;5.00;1.33;;;3.90;99.90;;;;;;5059374;28;20244;-90
2022/04/06 07:37:27;;;;;;;4.13;1.47;;;3.80;99.90;;;;;;5055781;28;20212;-91
2022/04/06 07:42:46;;;;;;;6.23;1.93;;;3.80;99.90;;;;;;5064432;28;20223;-92
2022/04/06 07:45:20;;;;;;;6.70;1.43;;;3.80;99.90;;;;;;5069802;28;20575;-91
2022/04/06 07:47:54;;;;;;;5.87;1.30;;;3.70;99.90;;;;;;5060887;28;20200;-91
2022/04/06 07:50:26;;;;;;;4.77;1.60;;;3.70;99.90;;;;;;5039438;28;20234;-90
2022/04/06 07:53:00;;;;;;;4.90;1.40;;;3.60;99.90;;;;;;5056364;28;20283;-90
2022/04/06 07:55:31;;;;;;;4.93;1.50;;;3.60;99.90;;;;;;5056195;28;20228;-90
2022/04/06 07:58:03;;;;;;;4.67;1.60;;;3.60;99.90;;;;;;5055662;28;20262;-90
2022/04/06 08:00:34;;;;;;;4.83;1.73;;;3.60;99.90;;;;;;5056510;28;20239;-90
2022/04/06 08:03:06;;;;;;;3.20;1.50;;;3.50;99.90;;;;;;5059484;28;20212;-91
2022/04/06 08:05:37;;;;;;;3.57;1.43;;;3.50;99.90;;;;;;5058000;28;20231;-92
2022/04/06 08:08:11;;;;;;;5.63;1.70;;;3.50;99.90;;;;;;5059006;28;20212;-92
2022/04/06 08:10:43;;;;;;;2.93;1.60;;;3.40;99.90;;;;;;5059465;28;20234;-92
2022/04/06 08:13:14;;;;;;;4.63;1.67;;;3.40;99.90;;;;;;5042593;28;20719;-91
2022/04/06 08:15:46;;;;;;;5.13;1.43;;;3.40;99.90;;;;;;5059972;28;20296;-91
2022/04/06 08:18:20;;;;;;;3.00;1.37;;;3.40;99.90;;;;;;5059284;28;20258;-90
2022/04/06 08:20:52;;;;;;;5.33;1.47;;;3.40;99.90;;;;;;5060488;28;20215;-91
2022/04/06 08:26:22;;;;;;;2.23;1.20;;;3.30;99.90;;;;;;5052913;28;20240;-91
2022/04/06 08:28:54;;;;;;;3.80;1.43;;;3.20;99.90;;;;;;5068847;28;20238;-91
2022/04/06 08:31:25;;;;;;;7.00;1.97;;;3.30;99.90;;;;;;5068802;28;20208;-91
2022/04/06 08:33:58;;;;;;;1.93;1.17;;;3.20;99.90;;;;;;5060164;28;20204;-90
2022/04/06 08:36:30;;;;;;;3.87;1.47;;;3.20;99.90;;;;;;5059813;28;20288;-90
2022/04/06 08:39:03;;;;;;;2.50;1.10;;;3.20;99.90;;;;;;5063799;28;20204;-91
2022/04/06 08:41:37;;;;;;;3.57;1.40;;;3.20;99.90;;;;;;5065989;28;20234;-91
2022/04/06 08:44:10;;;;;;;6.00;1.43;;;3.20;99.90;;;;;;5064174;28;20264;-91
2022/04/06 08:46:46;;;;;;;3.90;1.53;;;3.20;99.90;;;;;;5079962;28;20255;-91
2022/04/06 08:49:20;;;;;;;7.60;1.63;;;3.10;99.90;;;;;;5078524;28;20314;-91
2022/04/06 08:51:55;;;;;;;3.27;1.20;;;3.10;99.90;;;;;;5079118;28;20735;-91
2022/04/06 08:54:28;;;;;;;5.43;1.43;;;3.10;99.90;;;;;;5079239;28;20241;-91
2022/04/06 08:57:00;;;;;;;3.83;1.43;;;3.10;99.90;;;;;;5078751;28;20207;-90
2022/04/06 08:59:33;;;;;;;6.30;1.40;;;3.10;99.90;;;;;;5061710;28;20633;-92
2022/04/06 09:02:05;;;;;;;2.50;1.37;;;3.00;99.90;;;;;;5070658;28;20212;-91
2022/04/06 09:04:42;;;;;;;6.70;1.50;;;2.90;99.90;;;;;;5059849;28;20216;-92
2022/04/06 09:07:13;;;;;;;4.67;1.40;;;2.90;99.90;;;;;;5057901;28;20595;-92
2022/04/06 09:09:52;;;;;;;3.37;1.50;;;2.90;99.90;;;;;;5058906;28;20231;-91
2022/04/06 09:12:26;;;;;;;3.13;1.10;;;2.90;99.90;;;;;;5060644;28;20310;-90
2022/04/06 09:15:09;;;;;;;5.47;1.57;;;2.90;99.90;;;;;;5062201;28;20226;-92
2022/04/06 09:17:47;;;;;;;4.53;1.50;;;2.80;99.90;;;;;;5060151;28;20270;-91
2022/04/06 09:20:26;;;;;;;4.00;1.40;;;2.80;99.90;;;;;;5041554;28;20295;-90
2022/04/06 09:22:57;;;;;;;6.17;1.23;;;2.80;99.90;;;;;;5059683;28;20208;-92
2022/04/06 09:25:35;;;;;;;2.80;1.50;;;2.80;99.90;;;;;;5041528;28;20260;-91
2022/04/06 09:28:14;;;;;;;3.40;1.40;;;2.80;99.90;;;;;;5057871;28;20263;-91
2022/04/06 09:30:48;;;;;;;5.13;1.47;;;2.90;99.90;;;;;;5059513;28;20210;-92
2022/04/06 09:33:21;;;;;;;4.27;1.50;;;2.80;99.90;;;;;;5058646;28;20204;-93
2022/04/06 09:35:55;;;;;;;1.87;1.20;;;2.80;99.90;;;;;;5059178;28;20204;-92
2022/04/06 09:38:31;;;;;;;4.30;1.47;;;2.80;99.90;;;;;;5060692;28;20220;-92
2022/04/06 09:41:15;;;;;;;3.83;1.27;;;2.80;99.90;;;;;;5059633;28;20550;-91
2022/04/06 09:43:46;;;;;;;2.77;1.40;;;2.70;99.90;;;;;;5025299;28;20232;-91
2022/04/06 09:49:10;;;;;;;4.40;1.50;;;2.70;99.90;;;;;;5060844;28;20231;-92
2022/04/06 09:51:42;;;;;;;3.93;1.87;;;2.70;99.90;;;;;;5077562;28;20200;-92
2022/04/06 09:54:14;;;;;;;6.93;1.90;;;2.70;99.90;;;;;;5073707;28;20216;-92
2022/04/06 09:56:49;;;;;;;4.13;1.40;;;2.60;99.90;;;;;;5057680;28;20227;-92
2022/04/06 09:59:21;;;;;;;3.57;1.60;;;2.60;99.90;;;;;;5073655;28;20226;-92
2022/04/06 10:01:56;;;;;;;5.20;1.57;;;2.60;99.90;;;;;;5076854;28;20204;-92
2022/04/06 10:04:29;;;;;;;3.10;1.70;;;2.60;99.90;;;;;;5077636;28;20184;-90
2022/04/06 10:07:01;;;;;;;6.50;1.50;;;2.60;99.90;;;;;;5076643;28;20238;-91
2022/04/06 10:09:33;;;;;;;3.90;1.80;;;2.60;99.90;;;;;;5076718;28;20242;-92
2022/04/06 10:12:09;;;;;;;4.13;1.60;;;2.60;99.90;;;;;;5077014;28;20220;-92
2022/04/06 10:14:43;;;;;;;3.63;1.57;;;2.60;99.90;;;;;;5076051;28;20356;-90
2022/04/06 10:17:16;;;;;;;4.87;1.27;;;2.50;99.90;;;;;;5073723;28;20223;-92
2022/04/06 10:19:52;;;;;;;4.70;1.87;;;2.50;99.90;;;;;;5072990;28;20204;-90
2022/04/06 10:22:32;;;;;;;3.23;1.33;;;2.50;99.90;;;;;;5072529;28;20200;-93
2022/04/06 10:25:16;;;;;;;6.30;1.73;;;2.50;99.90;;;;;;5076102;28;20207;-92
2022/04/06 10:27:58;;;;;;;3.63;1.70;;;2.50;99.90;;;;;;5075693;28;20220;-91
2022/04/06 10:30:29;;;;;;;5.10;1.70;;;2.50;99.90;;;;;;5076975;28;20200;-92
2022/04/06 10:33:03;;;;;;;6.60;1.40;;;2.50;99.90;;;;;;5076949;28;20234;-92
2022/04/06 10:35:35;;;;;;;4.17;1.60;;;2.40;99.90;;;;;;5074827;28;20272;-91
2022/04/06 10:38:20;;;;;;;4.90;1.53;;;2.40;99.90;;;;;;5056572;28;20203;-92
2022/04/06 10:41:02;;;;;;;5.60;1.40;;;2.40;99.90;;;;;;5037563;28;20208;-93
2022/04/06 10:43:55;;;;;;;3.90;1.60;;;2.30;99.90;;;;;;5054347;28;20205;-92
2022/04/06 10:46:40;;;;;;;4.30;1.73;;;2.30;99.90;;;;;;5075716;28;20234;-91
2022/04/06 10:49:15;;;;;;;4.93;1.50;;;2.20;99.90;;;;;;5074942;28;20211;-90
2022/04/06 10:51:48;;;;;;;2.97;1.47;;;2.20;99.90;;;;;;5075704;28;20221;-92
2022/04/06 10:54:43;;;;;;;5.97;1.70;;;2.20;99.90;;;;;;5073193;28;20216;-91
2022/04/06 10:57:15;;;;;;;3.50;1.40;;;2.20;99.90;;;;;;5068601;28;20212;-93
2022/04/06 11:05:48;;;;;;;3.20;1.67;;;2.00;99.90;;;;;;5039703;28;20290;-91
2022/04/06 11:11:47;;;;;;;3.03;1.30;;;2.00;99.90;;;;;;5040581;28;20213;-92
2022/04/06 11:14:31;;;;;;;6.53;1.43;;;2.00;99.90;;;;;;5040859;28;20271;-92
2022/04/06 11:17:41;;;;;;;3.17;1.40;;;1.90;99.90;;;;;;5039755;28;20237;-92
2022/04/06 11:20:14;;;;;;;3.47;1.13;;;1.90;99.90;;;;;;5038150;28;20684;-92
2022/04/06 11:22:53;;;;;;;3.63;1.37;;;1.90;99.90;;;;;;5040156;28;20311;-91
2022/04/06 11:25:27;;;;;;;4.53;1.40;;;1.90;99.90;;;;;;5037783;28;20212;-92
2022/04/06 11:28:11;;;;;;;3.87;1.20;;;1.90;99.90;;;;;;5037192;28;20239;-92
2022/04/06 11:30:47;;;;;;;5.87;1.37;;;1.80;99.90;;;;;;5018209;28;20216;-92
2022/04/06 11:33:23;;;;;;;3.60;1.30;;;1.80;99.90;;;;;;5018745;28;20205;-91
2022/04/06 11:35:56;;;;;;;5.43;1.30;;;1.80;99.90;;;;;;5018351;28;20209;-94
2022/04/06 11:38:36;;;;;;;3.87;1.23;;;1.70;99.90;;;;;;5017499;28;20292;-93
2022/04/06 11:41:10;;;;;;;2.93;1.23;;;1.70;99.90;;;;;;5040842;28;20270;-91
2022/04/06 11:43:44;;;;;;;4.20;1.97;;;1.70;99.90;;;;;;5048527;28;20205;-92
2022/04/06 11:46:16;;;;;;;4.10;1.83;;;1.70;99.90;;;;;;5046242;28;20204;-94
2022/04/06 11:48:53;;;;;;;3.07;1.23;;;1.70;99.90;;;;;;5042079;28;20267;-93
2022/04/06 11:51:28;;;;;;;2.83;1.40;;;1.60;99.90;;;;;;5042611;28;20312;-92
2022/04/06 11:54:00;;;;;;;6.30;1.47;;;1.60;99.90;;;;;;5041912;28;20292;-91
2022/04/06 11:56:31;;;;;;;2.80;1.57;;;1.60;99.90;;;;;;5041080;28;20213;-92
2022/04/06 11:59:03;;;;;;;4.20;1.30;;;1.50;99.90;;;;;;5040330;28;20294;-90
2022/04/06 12:01:45;;;;;;;4.40;1.40;;;1.50;99.90;;;;;;5040108;28;20259;-92
2022/04/06 12:04:21;;;;;;;2.97;1.50;;;1.40;99.90;;;;;;5040310;28;20235;-93
2022/04/06 12:06:54;;;;;;;5.03;1.50;;;1.40;99.90;;;;;;5040063;28;20283;-91
2022/04/06 12:09:27;;;;;;;1.83;1.63;;;1.30;99.90;;;;;;5039097;28;20258;-92
2022/04/06 12:11:58;;;;;;;3.47;1.80;;;1.30;99.90;;;;;;5040825;28;20217;-91
2022/04/06 12:14:30;;;;;;;3.23;1.87;;;1.40;99.90;;;;;;5040256;28;20229;-93
2022/04/06 12:17:01;;;;;;;3.27;1.30;;;1.40;99.90;;;;;;5040571;28;20220;-93
2022/04/06 12:19:36;;;;;;;4.13;1.40;;;1.40;99.90;;;;;;5039828;28;20201;-93
2022/04/06 12:22:11;;;;;;;5.17;1.27;;;1.40;99.90;;;;;;5040295;28;20244;-93
2022/04/06 12:24:44;;;;;;;2.43;1.33;;;1.30;99.90;;;;;;5040257;28;20216;-92
2022/04/06 12:27:30;;;;;;;2.93;1.50;;;1.30;99.90;;;;;;5041575;28;20340;-92
2022/04/06 12:30:11;;;;;;;3.67;1.40;;;1.30;99.90;;;;;;5041445;28;20209;-92
2022/04/06 12:32:49;;;;;;;1.93;1.43;;;1.30;99.90;;;;;;5057153;28;20239;-92
2022/04/06 12:35:25;;;;;;;5.07;1.30;;;1.30;99.90;;;;;;5057982;28;20212;-92
2022/04/06 12:37:56;;;;;;;4.57;1.80;;;1.30;99.90;;;;;;5048006;28;20254;-92
2022/04/06 12:40:28;;;;;;;2.40;1.27;;;1.20;99.90;;;;;;5050010;28;20239;-92
2022/04/06 12:42:59;;;;;;;2.53;1.33;;;1.20;99.90;;;;;;5045650;28;20209;-92
2022/04/06 12:45:48;;;;;;;4.67;1.30;;;1.20;99.90;;;;;;5044953;28;20231;-92
2022/04/06 12:48:21;;;;;;;5.00;1.40;;;1.10;99.90;;;;;;5041103;28;20248;-92
2022/04/06 12:51:25;;;;;;;4.90;1.43;;;1.10;99.90;;;;;;5026135;28;20611;-92
2022/04/06 12:53:59;;;;;;;3.53;1.10;;;1.00;99.90;;;;;;5040361;28;20204;-93
2022/04/06 12:56:30;;;;;;;6.07;1.37;;;1.00;99.90;;;;;;5042711;28;20215;-92
2022/04/06 12:59:10;;;;;;;5.13;1.50;;;1.00;99.90;;;;;;5052470;28;20212;-91
2022/04/06 13:01:48;;;;;;;3.13;1.60;;;1.00;99.90;;;;;;5050497;28;20217;-92
2022/04/06 13:04:19;;;;;;;2.07;1.20;;;1.00;99.90;;;;;;5029535;28;20243;-92
2022/04/06 13:06:53;;;;;;;4.20;1.37;;;1.00;99.90;;;;;;5005980;28;20205;-94
2022/04/06 13:09:25;;;;;;;5.40;1.60;;;1.00;99.90;;;;;;5019824;28;20229;-92
2022/04/06 13:11:56;;;;;;;2.57;1.10;;;0.90;99.90;;;;;;5019873;28;20244;-91
2022/04/06 13:14:29;;;;;;;4.40;1.50;;;0.90;99.90;;;;;;5023507;28;20232;-93
2022/04/06 13:17:03;;;;;;;2.43;1.30;;;0.90;99.90;;;;;;5020073;28;20213;-93
2022/04/06 13:19:36;;;;;;;4.47;1.57;;;0.90;99.90;;;;;;5019768;28;20197;-93
2022/04/06 13:22:11;;;;;;;5.30;1.63;;;0.90;99.90;;;;;;5019490;28;20289;-92
2022/04/06 13:24:43;;;;;;;6.30;2.20;;;0.90;99.90;;;;;;5022334;28;20712;-91
2022/04/06 13:27:15;;;;;;;4.73;2.07;;;0.90;99.90;;;;;;5003901;28;20239;-94
2022/04/06 13:29:48;;;;;;;4.27;1.80;;;0.80;99.90;;;;;;5040505;28;20633;-93
2022/04/06 13:32:19;;;;;;;5.50;1.80;;;0.80;99.90;;;;;;5038698;28;20216;-93
2022/04/06 13:34:50;;;;;;;6.33;1.60;;;0.80;99.90;;;;;;5038740;28;20193;-92
2022/04/06 13:37:25;;;;;;;5.20;2.03;;;0.80;99.90;;;;;;5038308;28;20581;-92
2022/04/06 13:39:57;;;;;;;9.30;2.23;;;0.70;99.90;;;;;;5021018;28;20243;-92
2022/04/06 13:42:29;;;;;;;4.07;1.70;;;0.70;99.90;;;;;;5038059;28;20204;-93
2022/04/06 13:45:01;;;;;;;3.87;1.80;;;0.60;99.90;;;;;;5037839;28;20267;-93
2022/04/06 13:47:34;;;;;;;3.93;1.93;;;0.60;99.90;;;;;;5037862;28;20568;-94
2022/04/06 13:50:07;;;;;;;4.20;2.30;;;0.60;99.90;;;;;;5038285;28;20221;-93
2022/04/06 13:52:42;;;;;;;4.40;2.10;;;0.70;99.90;;;;;;5037777;28;20232;-92
2022/04/06 13:55:21;;;;;;;5.50;2.23;;;0.80;99.90;;;;;;5038460;28;20254;-92
2022/04/06 13:57:53;;;;;;;7.30;2.13;;;0.80;99.90;;;;;;5037576;28;20213;-93
2022/04/06 14:00:24;;;;;;;4.07;2.00;;;0.80;99.90;;;;;;5021058;28;20246;-92
2022/04/06 14:02:55;;;;;;;6.47;2.13;;;0.80;99.90;;;;;;5044108;28;20308;-91
2022/04/06 14:05:30;;;;;;;4.97;2.03;;;0.90;99.90;;;;;;5030474;28;20235;-93
2022/04/06 14:08:09;;;;;;;4.50;2.27;;;0.90;99.90;;;;;;5043249;28;20227;-93
2022/04/06 14:10:41;;;;;;;3.50;1.60;;;0.90;99.90;;;;;;5045570;28;20298;-91
2022/04/06 14:13:14;;;;;;;6.10;1.73;;;1.00;99.90;;;;;;5027846;28;20205;-92
2022/04/06 14:15:46;;;;;;;6.23;1.77;;;1.00;99.90;;;;;;5029078;28;20228;-92
2022/04/06 14:18:19;;;;;;;2.93;1.50;;;1.00;99.90;;;;;;5038522;28;20213;-93
2022/04/06 14:20:51;;;;;;;5.87;1.30;;;1.00;99.90;;;;;;5038348;28;20263;-92
2022/04/06 14:23:25;;;;;;;6.13;1.50;;;1.00;99.90;;;;;;5021048;28;20204;-92
2022/04/06 14:26:00;;;;;;;6.03;1.57;;;1.10;99.90;;;;;;5038158;28;20227;-93
2022/04/06 14:28:34;;;;;;;7.87;1.63;;;1.10;99.90;;;;;;5039655;28;20224;-91